CPA3701 OMDW-EGLL
Flight info
| Callsign | CPA3701 |
|---|---|
| Flight time | N/A |
| Altitude | 32000 |
| Route | KUTLI DCT RIBOT DCT IVONU Z710 SOKOP V166 GAS G662 HIL N697 KITOT/N0475F340 L550 NOVPA J981 DATOK L550 GENIV L324 TEZAK N128 USEBE M855 MAROS M67 TOSKA DCT KOR UL613 VJOSA DCT PAPIZ DCT GONOT DCT CRAYE DCT GISAM DCT RILIM DCT SAL DCT PEVAL/N0463F360 DCT BABAG DCT UNTAD DCT RESIA Z50 KELIP Z651 MANEG L613 RIPUS DCT DEVDI DCT LASAT DCT DIDOR/N0459F360 DCT IRBAL DCT NITAR DCT ABNUR DCT ALESO T420 BIG |
| Aircraft | B748/H-SDE3FGHIJ7M1M2RWXY/LB1 |
Departure
| Time | 2026-04-23 06:12 |
|---|---|
| Airport | Al Maktoum International Airport (OMDW) |
Arrival
| Time | N/A |
|---|---|
| Airport | London Heathrow Airport (EGLL) |
| Time | Latitude | Longitude | Altitude | Speed | Heading |
|---|---|---|---|---|---|
| 2026-04-23 05:44 | 24.88819 | 55.15230 | 184 ft | 0 kts | 301° |
| 2026-04-23 05:56 | 24.88816 | 55.15237 | 184 ft | 2 kts | 301° |
| 2026-04-23 05:57 | 24.88805 | 55.15255 | 184 ft | 3 kts | 303° |
| 2026-04-23 05:57 | 24.88794 | 55.15274 | 184 ft | 2 kts | 302° |
| 2026-04-23 05:57 | 24.88786 | 55.15289 | 184 ft | 3 kts | 311° |
| 2026-04-23 05:57 | 24.88774 | 55.15302 | 184 ft | 3 kts | 335° |
| 2026-04-23 05:58 | 24.88762 | 55.15307 | 184 ft | 3 kts | 7° |
| 2026-04-23 05:58 | 24.88747 | 55.15303 | 184 ft | 3 kts | 32° |
| 2026-04-23 05:58 | 24.88730 | 55.15290 | 184 ft | 3 kts | 35° |
| 2026-04-23 05:58 | 24.88716 | 55.15280 | 184 ft | 2 kts | 32° |
| 2026-04-23 05:59 | 24.88705 | 55.15272 | 184 ft | 0 kts | 32° |
| 2026-04-23 06:02 | 24.88706 | 55.15273 | 184 ft | 1 kts | 32° |
| 2026-04-23 06:03 | 24.88736 | 55.15294 | 184 ft | 9 kts | 32° |
| 2026-04-23 06:03 | 24.88788 | 55.15330 | 184 ft | 10 kts | 32° |
| 2026-04-23 06:03 | 24.88855 | 55.15375 | 184 ft | 13 kts | 32° |
| 2026-04-23 06:03 | 24.88937 | 55.15431 | 184 ft | 15 kts | 32° |
| 2026-04-23 06:04 | 24.89035 | 55.15499 | 184 ft | 18 kts | 32° |
| 2026-04-23 06:04 | 24.89148 | 55.15576 | 184 ft | 20 kts | 32° |
| 2026-04-23 06:04 | 24.89274 | 55.15663 | 184 ft | 22 kts | 32° |
| 2026-04-23 06:04 | 24.89398 | 55.15750 | 184 ft | 21 kts | 32° |
| 2026-04-23 06:05 | 24.89481 | 55.15822 | 184 ft | 11 kts | 86° |
| 2026-04-23 06:05 | 24.89449 | 55.15904 | 184 ft | 15 kts | 122° |
| 2026-04-23 06:05 | 24.89381 | 55.16023 | 184 ft | 21 kts | 121° |
| 2026-04-23 06:05 | 24.89297 | 55.16175 | 184 ft | 24 kts | 122° |
| 2026-04-23 06:06 | 24.89212 | 55.16326 | 184 ft | 23 kts | 121° |
| 2026-04-23 06:06 | 24.89133 | 55.16470 | 184 ft | 22 kts | 121° |
| 2026-04-23 06:06 | 24.89056 | 55.16609 | 184 ft | 21 kts | 121° |
| 2026-04-23 06:06 | 24.88983 | 55.16740 | 184 ft | 20 kts | 121° |
| 2026-04-23 06:07 | 24.88913 | 55.16866 | 184 ft | 19 kts | 121° |
| 2026-04-23 06:07 | 24.88847 | 55.16986 | 184 ft | 18 kts | 121° |
| 2026-04-23 06:07 | 24.88784 | 55.17100 | 184 ft | 17 kts | 121° |
| 2026-04-23 06:07 | 24.88724 | 55.17207 | 184 ft | 16 kts | 121° |
| 2026-04-23 06:08 | 24.88668 | 55.17307 | 184 ft | 15 kts | 121° |
| 2026-04-23 06:08 | 24.88615 | 55.17402 | 184 ft | 14 kts | 121° |
| 2026-04-23 06:08 | 24.88566 | 55.17492 | 184 ft | 13 kts | 121° |
| 2026-04-23 06:08 | 24.88520 | 55.17577 | 184 ft | 13 kts | 121° |
| 2026-04-23 06:09 | 24.88476 | 55.17658 | 184 ft | 12 kts | 121° |
| 2026-04-23 06:09 | 24.88434 | 55.17736 | 184 ft | 12 kts | 121° |
| 2026-04-23 06:09 | 24.88394 | 55.17812 | 184 ft | 11 kts | 105° |
| 2026-04-23 06:09 | 24.88433 | 55.17876 | 184 ft | 11 kts | 31° |
| 2026-04-23 06:10 | 24.88496 | 55.17918 | 184 ft | 10 kts | 31° |
| 2026-04-23 06:10 | 24.88556 | 55.17958 | 184 ft | 10 kts | 31° |
| 2026-04-23 06:10 | 24.88615 | 55.17990 | 184 ft | 10 kts | 346° |
| 2026-04-23 06:10 | 24.88656 | 55.17936 | 184 ft | 9 kts | 302° |
| 2026-04-23 06:11 | 24.88720 | 55.17822 | 184 ft | 34 kts | 301° |
| 2026-04-23 06:11 | 24.88939 | 55.17424 | 184 ft | 87 kts | 301° |
| 2026-04-23 06:11 | 24.89343 | 55.16694 | 185 ft | 135 kts | 301° |
| 2026-04-23 06:11 | 24.89908 | 55.15672 | 185 ft | 176 kts | 300° |
| 2026-04-23 06:12 | 24.90590 | 55.14425 | 253 ft | 199 kts | 300° |
| 2026-04-23 06:12 | 24.91313 | 55.13148 | 766 ft | 193 kts | 300° |
| 2026-04-23 06:12 | 24.92732 | 55.10676 | 1806 ft | 191 kts | 301° |
| 2026-04-23 06:13 | 24.93424 | 55.09418 | 2052 ft | 195 kts | 301° |
| 2026-04-23 06:13 | 24.94110 | 55.08092 | 2190 ft | 204 kts | 299° |
| 2026-04-23 06:13 | 24.94781 | 55.06688 | 2390 ft | 211 kts | 301° |
| 2026-04-23 06:13 | 24.95574 | 55.05285 | 2589 ft | 221 kts | 303° |
| 2026-04-23 06:14 | 24.96440 | 55.03856 | 2905 ft | 224 kts | 303° |
| 2026-04-23 06:14 | 24.97290 | 55.02422 | 3335 ft | 225 kts | 302° |
| 2026-04-23 06:14 | 24.98108 | 55.00926 | 3640 ft | 230 kts | 300° |
| 2026-04-23 06:14 | 24.98929 | 54.99395 | 3992 ft | 233 kts | 300° |
| 2026-04-23 06:15 | 24.99770 | 54.97852 | 4350 ft | 237 kts | 300° |
| 2026-04-23 06:15 | 25.00632 | 54.96283 | 4678 ft | 241 kts | 300° |
| 2026-04-23 06:15 | 25.01357 | 54.94609 | 4970 ft | 243 kts | 281° |
| 2026-04-23 06:15 | 25.01296 | 54.92793 | 5346 ft | 237 kts | 252° |
| 2026-04-23 06:16 | 25.00448 | 54.91261 | 5703 ft | 235 kts | 228° |
| 2026-04-23 06:16 | 24.99170 | 54.90139 | 6074 ft | 235 kts | 216° |
| 2026-04-23 06:16 | 24.97774 | 54.89180 | 6425 ft | 237 kts | 211° |
| 2026-04-23 06:16 | 24.96243 | 54.88496 | 6708 ft | 241 kts | 190° |
| 2026-04-23 06:17 | 24.94575 | 54.88665 | 7011 ft | 246 kts | 167° |
| 2026-04-23 06:17 | 24.92954 | 54.89403 | 7145 ft | 259 kts | 156° |
| 2026-04-23 06:17 | 24.91344 | 54.90415 | 7299 ft | 272 kts | 152° |
| 2026-04-23 06:17 | 24.89723 | 54.91547 | 7586 ft | 280 kts | 151° |
| 2026-04-23 06:18 | 24.87951 | 54.92324 | 7975 ft | 279 kts | 174° |
| 2026-04-23 06:18 | 24.86030 | 54.92156 | 8407 ft | 280 kts | 199° |
| 2026-04-23 06:18 | 24.84354 | 54.91089 | 8932 ft | 280 kts | 219° |
| 2026-04-23 06:18 | 24.82999 | 54.89546 | 9501 ft | 282 kts | 229° |
| 2026-04-23 06:19 | 24.81805 | 54.87824 | 10056 ft | 284 kts | 233° |
| 2026-04-23 06:19 | 24.80669 | 54.85998 | 10408 ft | 296 kts | 236° |
| 2026-04-23 06:19 | 24.79497 | 54.84042 | 10543 ft | 315 kts | 236° |
| 2026-04-23 06:19 | 24.78243 | 54.81984 | 10678 ft | 334 kts | 235° |
| 2026-04-23 06:20 | 24.76888 | 54.79814 | 10808 ft | 353 kts | 235° |
| 2026-04-23 06:20 | 24.75445 | 54.77548 | 10937 ft | 371 kts | 234° |
| 2026-04-23 06:20 | 24.73929 | 54.75201 | 11338 ft | 380 kts | 234° |
| 2026-04-23 06:20 | 24.72374 | 54.72820 | 11842 ft | 387 kts | 234° |
| 2026-04-23 06:21 | 24.70786 | 54.70405 | 12430 ft | 391 kts | 233° |
| 2026-04-23 06:21 | 24.69177 | 54.67972 | 13060 ft | 395 kts | 233° |
| 2026-04-23 06:21 | 24.67554 | 54.65524 | 13719 ft | 398 kts | 233° |
| 2026-04-23 06:21 | 24.65913 | 54.63053 | 14385 ft | 401 kts | 233° |
| 2026-04-23 06:22 | 24.64272 | 54.60548 | 15108 ft | 407 kts | 233° |
| 2026-04-23 06:22 | 24.62607 | 54.58021 | 15872 ft | 408 kts | 233° |
| 2026-04-23 06:22 | 24.60934 | 54.55504 | 16576 ft | 410 kts | 233° |
| 2026-04-23 06:22 | 24.59240 | 54.52960 | 17239 ft | 413 kts | 233° |
| 2026-04-23 06:23 | 24.57538 | 54.50408 | 17892 ft | 416 kts | 233° |
| 2026-04-23 06:23 | 24.55826 | 54.47843 | 18519 ft | 419 kts | 234° |
| 2026-04-23 06:23 | 24.54093 | 54.45250 | 19134 ft | 422 kts | 234° |
| 2026-04-23 06:23 | 24.52349 | 54.42640 | 19704 ft | 426 kts | 234° |
| 2026-04-23 06:24 | 24.50589 | 54.40010 | 20247 ft | 430 kts | 234° |
| 2026-04-23 06:24 | 24.48810 | 54.37351 | 20787 ft | 434 kts | 234° |
| 2026-04-23 06:24 | 24.47014 | 54.34669 | 21312 ft | 438 kts | 234° |
| 2026-04-23 06:24 | 24.45201 | 54.31964 | 21824 ft | 442 kts | 234° |
| 2026-04-23 06:25 | 24.43373 | 54.29237 | 22320 ft | 446 kts | 234° |
| 2026-04-23 06:25 | 24.41528 | 54.26487 | 22808 ft | 450 kts | 233° |
| 2026-04-23 06:25 | 24.39666 | 54.23712 | 23283 ft | 453 kts | 233° |
| 2026-04-23 06:25 | 24.37786 | 54.20913 | 23750 ft | 457 kts | 233° |
| 2026-04-23 06:26 | 24.35893 | 54.18097 | 24205 ft | 461 kts | 233° |
| 2026-04-23 06:26 | 24.33985 | 54.15260 | 24654 ft | 464 kts | 233° |
| 2026-04-23 06:26 | 24.32063 | 54.12402 | 25143 ft | 467 kts | 233° |
| 2026-04-23 06:26 | 24.30132 | 54.09534 | 25666 ft | 468 kts | 233° |
| 2026-04-23 06:27 | 24.28194 | 54.06657 | 26154 ft | 470 kts | 234° |
| 2026-04-23 06:27 | 24.26245 | 54.03767 | 26623 ft | 472 kts | 234° |
| 2026-04-23 06:27 | 24.24275 | 54.00846 | 26748 ft | 482 kts | 234° |
| 2026-04-23 06:27 | 24.22270 | 53.97873 | 26874 ft | 490 kts | 234° |
| 2026-04-23 06:28 | 24.20222 | 53.94840 | 27000 ft | 497 kts | 234° |
| 2026-04-23 06:28 | 24.18155 | 53.91780 | 27126 ft | 504 kts | 234° |
| 2026-04-23 06:28 | 24.16059 | 53.88680 | 27300 ft | 507 kts | 234° |
| 2026-04-23 06:28 | 24.13959 | 53.85576 | 27682 ft | 507 kts | 234° |
| 2026-04-23 06:29 | 24.11861 | 53.82476 | 28057 ft | 507 kts | 234° |
| 2026-04-23 06:29 | 24.09760 | 53.79375 | 28433 ft | 505 kts | 234° |
| 2026-04-23 06:29 | 24.07674 | 53.76297 | 28916 ft | 502 kts | 235° |
| 2026-04-23 06:29 | 24.05603 | 53.73244 | 29415 ft | 498 kts | 235° |
| 2026-04-23 06:30 | 24.03571 | 53.70249 | 29909 ft | 495 kts | 235° |
| 2026-04-23 06:30 | 24.01522 | 53.67232 | 30410 ft | 492 kts | 236° |
| 2026-04-23 06:30 | 23.99490 | 53.64241 | 30910 ft | 489 kts | 236° |
| 2026-04-23 06:30 | 23.97468 | 53.61268 | 31410 ft | 485 kts | 236° |
| 2026-04-23 06:31 | 23.95457 | 53.58311 | 31737 ft | 486 kts | 236° |
| 2026-04-23 06:31 | 23.93437 | 53.55344 | 31842 ft | 487 kts | 237° |
| 2026-04-23 06:31 | 23.89376 | 53.49377 | 31869 ft | 491 kts | 237° |
| 2026-04-23 06:32 | 23.85294 | 53.43391 | 31860 ft | 491 kts | 237° |
| 2026-04-23 06:32 | 23.81998 | 53.38565 | 31858 ft | 490 kts | 237° |
| 2026-04-23 06:33 | 23.77920 | 53.32596 | 31855 ft | 491 kts | 237° |
| 2026-04-23 06:33 | 23.73833 | 53.26626 | 31852 ft | 491 kts | 237° |
| 2026-04-23 06:34 | 23.69746 | 53.20661 | 31852 ft | 491 kts | 237° |
| 2026-04-23 06:34 | 23.65655 | 53.14696 | 31853 ft | 491 kts | 237° |
| 2026-04-23 06:35 | 23.61568 | 53.08744 | 31855 ft | 490 kts | 237° |
| 2026-04-23 06:35 | 23.58166 | 53.03794 | 31857 ft | 491 kts | 237° |
| 2026-04-23 06:36 | 23.53380 | 52.96843 | 31860 ft | 491 kts | 237° |
| 2026-04-23 06:36 | 23.49975 | 52.91901 | 31861 ft | 490 kts | 237° |
| 2026-04-23 06:37 | 23.45874 | 52.85957 | 31867 ft | 491 kts | 236° |
| 2026-04-23 06:37 | 23.41772 | 52.80018 | 31869 ft | 491 kts | 236° |
| 2026-04-23 06:38 | 23.37670 | 52.74084 | 31871 ft | 491 kts | 236° |
| 2026-04-23 06:38 | 23.33567 | 52.68150 | 31874 ft | 490 kts | 237° |
| 2026-04-23 06:39 | 23.29471 | 52.62214 | 31875 ft | 491 kts | 236° |
| 2026-04-23 06:39 | 23.25357 | 52.56292 | 31868 ft | 491 kts | 236° |
| 2026-04-23 06:40 | 23.21236 | 52.50369 | 31865 ft | 491 kts | 236° |
| 2026-04-23 06:40 | 23.17400 | 52.44272 | 31849 ft | 486 kts | 250° |
| 2026-04-23 06:41 | 23.16467 | 52.40765 | 31846 ft | 483 kts | 264° |
| 2026-04-23 06:41 | 23.16377 | 52.37131 | 31848 ft | 480 kts | 275° |
| 2026-04-23 06:41 | 23.17666 | 52.30097 | 31845 ft | 479 kts | 285° |
| 2026-04-23 06:42 | 23.19779 | 52.23230 | 31845 ft | 480 kts | 288° |
| 2026-04-23 06:42 | 23.21991 | 52.16386 | 31846 ft | 480 kts | 288° |
| 2026-04-23 06:43 | 23.24142 | 52.09512 | 31847 ft | 479 kts | 287° |
| 2026-04-23 06:43 | 23.26277 | 52.02644 | 31846 ft | 479 kts | 288° |
| 2026-04-23 06:44 | 23.28412 | 51.95778 | 31846 ft | 480 kts | 287° |
| 2026-04-23 06:44 | 23.30529 | 51.88899 | 31846 ft | 479 kts | 287° |
| 2026-04-23 06:45 | 23.32637 | 51.82017 | 31845 ft | 479 kts | 287° |
| 2026-04-23 06:45 | 23.34741 | 51.75134 | 31846 ft | 480 kts | 287° |
| 2026-04-23 06:46 | 23.36839 | 51.68245 | 31845 ft | 479 kts | 287° |
| 2026-04-23 06:46 | 23.38935 | 51.61354 | 31847 ft | 479 kts | 287° |
| 2026-04-23 06:47 | 23.41026 | 51.54461 | 31846 ft | 479 kts | 287° |
| 2026-04-23 06:47 | 23.43114 | 51.47572 | 31847 ft | 480 kts | 287° |
| 2026-04-23 06:48 | 23.45202 | 51.40671 | 31850 ft | 479 kts | 287° |
| 2026-04-23 06:48 | 23.47270 | 51.33822 | 31844 ft | 479 kts | 287° |
| 2026-04-23 06:49 | 23.49348 | 51.26927 | 31847 ft | 479 kts | 287° |
| 2026-04-23 06:49 | 23.51424 | 51.20024 | 31845 ft | 480 kts | 287° |
| 2026-04-23 06:50 | 23.53499 | 51.13117 | 31846 ft | 479 kts | 287° |
| 2026-04-23 06:50 | 23.55569 | 51.06214 | 31847 ft | 479 kts | 287° |
| 2026-04-23 06:51 | 23.57638 | 50.99298 | 31847 ft | 479 kts | 287° |
| 2026-04-23 06:51 | 23.59701 | 50.92390 | 31846 ft | 479 kts | 287° |
| 2026-04-23 06:52 | 23.61764 | 50.85478 | 31844 ft | 479 kts | 287° |
| 2026-04-23 06:52 | 23.63821 | 50.78561 | 31843 ft | 479 kts | 287° |
| 2026-04-23 06:53 | 23.65877 | 50.71643 | 31846 ft | 479 kts | 287° |
| 2026-04-23 06:53 | 23.67928 | 50.64721 | 31850 ft | 479 kts | 287° |
| 2026-04-23 06:54 | 23.69977 | 50.57800 | 31847 ft | 479 kts | 287° |
| 2026-04-23 06:54 | 23.72021 | 50.50880 | 31849 ft | 479 kts | 287° |
| 2026-04-23 06:55 | 23.74065 | 50.43954 | 31846 ft | 479 kts | 287° |
| 2026-04-23 06:55 | 23.76106 | 50.37024 | 31845 ft | 479 kts | 287° |
| 2026-04-23 06:56 | 23.78143 | 50.30092 | 31847 ft | 479 kts | 287° |
| 2026-04-23 06:56 | 23.80175 | 50.23165 | 31845 ft | 479 kts | 287° |
| 2026-04-23 06:57 | 23.82205 | 50.16230 | 31845 ft | 479 kts | 287° |
| 2026-04-23 06:57 | 23.84231 | 50.09296 | 31847 ft | 479 kts | 287° |
| 2026-04-23 06:58 | 23.86257 | 50.02351 | 31846 ft | 479 kts | 287° |
| 2026-04-23 06:58 | 23.88275 | 49.95420 | 31849 ft | 479 kts | 287° |
| 2026-04-23 06:59 | 23.90281 | 49.88518 | 31847 ft | 479 kts | 286° |
| 2026-04-23 06:59 | 23.92295 | 49.81574 | 31846 ft | 479 kts | 286° |
| 2026-04-23 07:00 | 23.94307 | 49.74628 | 31846 ft | 479 kts | 286° |
| 2026-04-23 07:00 | 23.96314 | 49.67685 | 31846 ft | 479 kts | 286° |
| 2026-04-23 07:01 | 23.98319 | 49.60733 | 31848 ft | 479 kts | 286° |
| 2026-04-23 07:01 | 24.00322 | 49.53778 | 31844 ft | 479 kts | 286° |
| 2026-04-23 07:02 | 24.02318 | 49.46827 | 31847 ft | 479 kts | 286° |
| 2026-04-23 07:02 | 24.04317 | 49.39864 | 31845 ft | 479 kts | 286° |
| 2026-04-23 07:03 | 24.06308 | 49.32909 | 31848 ft | 479 kts | 286° |
| 2026-04-23 07:03 | 24.08298 | 49.25944 | 31846 ft | 479 kts | 286° |
| 2026-04-23 07:04 | 24.10284 | 49.18980 | 31847 ft | 479 kts | 286° |
| 2026-04-23 07:04 | 24.12268 | 49.12015 | 31847 ft | 479 kts | 286° |
| 2026-04-23 07:05 | 24.14247 | 49.05049 | 31844 ft | 479 kts | 286° |
| 2026-04-23 07:05 | 24.16192 | 48.98197 | 31903 ft | 470 kts | 285° |
| 2026-04-23 07:06 | 24.18133 | 48.91340 | 31906 ft | 468 kts | 285° |
| 2026-04-23 07:06 | 24.20046 | 48.84567 | 31906 ft | 469 kts | 285° |
| 2026-04-23 07:07 | 24.21971 | 48.77742 | 31903 ft | 469 kts | 285° |
| 2026-04-23 07:07 | 24.23892 | 48.70919 | 31907 ft | 469 kts | 285° |
| 2026-04-23 07:08 | 24.25809 | 48.64095 | 31904 ft | 468 kts | 285° |
| 2026-04-23 07:08 | 24.27723 | 48.57266 | 31905 ft | 469 kts | 285° |
| 2026-04-23 07:09 | 24.29633 | 48.50442 | 31904 ft | 469 kts | 285° |
| 2026-04-23 07:09 | 24.31542 | 48.43610 | 31902 ft | 468 kts | 285° |
| 2026-04-23 07:10 | 24.33447 | 48.36780 | 31905 ft | 469 kts | 285° |
| 2026-04-23 07:10 | 24.35348 | 48.29946 | 31905 ft | 468 kts | 285° |
| 2026-04-23 07:11 | 24.37247 | 48.23109 | 31905 ft | 469 kts | 285° |
| 2026-04-23 07:12 | 24.40088 | 48.12857 | 31906 ft | 468 kts | 285° |
| 2026-04-23 07:12 | 24.41979 | 48.06023 | 31904 ft | 468 kts | 285° |
| 2026-04-23 07:13 | 24.43867 | 47.99179 | 31907 ft | 468 kts | 285° |
| 2026-04-23 07:13 | 24.45749 | 47.92343 | 31906 ft | 468 kts | 285° |
| 2026-04-23 07:14 | 24.47629 | 47.85507 | 31906 ft | 468 kts | 285° |
| 2026-04-23 07:14 | 24.49500 | 47.78682 | 31905 ft | 468 kts | 285° |
| 2026-04-23 07:15 | 24.51377 | 47.71824 | 31904 ft | 468 kts | 284° |
| 2026-04-23 07:15 | 24.53248 | 47.64977 | 31941 ft | 467 kts | 285° |
| 2026-04-23 07:16 | 24.55117 | 47.58123 | 32010 ft | 469 kts | 285° |
| 2026-04-23 07:16 | 24.56984 | 47.51261 | 32015 ft | 468 kts | 285° |
| 2026-04-23 07:17 | 24.58847 | 47.44411 | 32015 ft | 468 kts | 285° |
| 2026-04-23 07:17 | 24.60704 | 47.37559 | 32016 ft | 468 kts | 285° |
| 2026-04-23 07:18 | 24.62563 | 47.30688 | 32017 ft | 468 kts | 285° |
| 2026-04-23 07:18 | 24.64416 | 47.23826 | 32020 ft | 468 kts | 285° |
| 2026-04-23 07:19 | 24.66265 | 47.16965 | 32020 ft | 468 kts | 285° |
| 2026-04-23 07:19 | 24.68112 | 47.10096 | 32022 ft | 468 kts | 285° |
| 2026-04-23 07:20 | 24.69957 | 47.03228 | 32022 ft | 468 kts | 285° |
| 2026-04-23 07:20 | 24.71784 | 46.96410 | 32021 ft | 468 kts | 284° |
| 2026-04-23 07:21 | 24.73621 | 46.89537 | 32023 ft | 468 kts | 285° |
| 2026-04-23 07:21 | 24.75457 | 46.82659 | 32024 ft | 468 kts | 284° |
| 2026-04-23 07:22 | 24.77288 | 46.75786 | 32024 ft | 468 kts | 284° |
| 2026-04-23 07:22 | 24.79119 | 46.68895 | 32023 ft | 468 kts | 284° |
| 2026-04-23 07:23 | 24.80943 | 46.62018 | 32024 ft | 468 kts | 284° |
| 2026-04-23 07:23 | 24.82469 | 46.56252 | 32028 ft | 468 kts | 284° |
| 2026-04-23 07:24 | 24.84286 | 46.49374 | 32022 ft | 468 kts | 284° |
| 2026-04-23 07:24 | 24.86101 | 46.42495 | 32024 ft | 468 kts | 284° |
| 2026-04-23 07:25 | 24.87899 | 46.35663 | 32023 ft | 468 kts | 284° |
| 2026-04-23 07:25 | 24.89709 | 46.28775 | 32022 ft | 468 kts | 284° |
| 2026-04-23 07:26 | 24.91511 | 46.21899 | 32024 ft | 468 kts | 284° |
| 2026-04-23 07:26 | 24.93312 | 46.15013 | 32023 ft | 468 kts | 284° |
| 2026-04-23 07:27 | 24.95111 | 46.08121 | 32021 ft | 468 kts | 284° |
| 2026-04-23 07:27 | 24.96909 | 46.01229 | 32024 ft | 468 kts | 284° |
| 2026-04-23 07:28 | 24.98717 | 45.94351 | 32023 ft | 468 kts | 284° |
| 2026-04-23 07:28 | 25.00503 | 45.87450 | 32025 ft | 468 kts | 284° |
| 2026-04-23 07:29 | 25.02282 | 45.80552 | 32022 ft | 467 kts | 284° |
| 2026-04-23 07:29 | 25.04055 | 45.73659 | 32024 ft | 468 kts | 284° |
| 2026-04-23 07:30 | 25.05983 | 45.66813 | 32027 ft | 468 kts | 289° |
| 2026-04-23 07:30 | 25.08672 | 45.60255 | 32024 ft | 470 kts | 293° |
| 2026-04-23 07:31 | 25.11578 | 45.53772 | 32008 ft | 472 kts | 293° |
| 2026-04-23 07:31 | 25.14443 | 45.47255 | 32005 ft | 472 kts | 293° |
| 2026-04-23 07:32 | 25.17284 | 45.40730 | 32003 ft | 472 kts | 293° |
| 2026-04-23 07:32 | 25.20099 | 45.34239 | 32001 ft | 472 kts | 293° |
| 2026-04-23 07:33 | 25.22959 | 45.27707 | 31999 ft | 472 kts | 293° |
| 2026-04-23 07:33 | 25.25802 | 45.21173 | 31997 ft | 472 kts | 293° |
| 2026-04-23 07:34 | 25.28639 | 45.14625 | 31995 ft | 472 kts | 293° |
| 2026-04-23 07:34 | 25.31469 | 45.08076 | 31994 ft | 472 kts | 292° |
| 2026-04-23 07:35 | 25.34287 | 45.01546 | 32025 ft | 470 kts | 292° |
| 2026-04-23 07:35 | 25.37105 | 44.95005 | 31995 ft | 472 kts | 292° |
| 2026-04-23 07:36 | 25.39934 | 44.88444 | 31977 ft | 473 kts | 293° |
| 2026-04-23 07:36 | 25.42769 | 44.81878 | 31975 ft | 473 kts | 292° |
| 2026-04-23 07:37 | 25.45583 | 44.75303 | 31974 ft | 473 kts | 292° |
| 2026-04-23 07:37 | 25.48392 | 44.68722 | 31973 ft | 473 kts | 292° |
| 2026-04-23 07:38 | 25.51202 | 44.62133 | 31972 ft | 473 kts | 292° |
| 2026-04-23 07:38 | 25.54805 | 44.56051 | 31975 ft | 479 kts | 308° |
| 2026-04-23 07:39 | 25.59517 | 44.50778 | 31971 ft | 484 kts | 313° |
| 2026-04-23 07:39 | 25.64494 | 44.45747 | 31970 ft | 485 kts | 313° |
| 2026-04-23 07:40 | 25.69454 | 44.40673 | 31969 ft | 485 kts | 312° |
| 2026-04-23 07:40 | 25.74386 | 44.35585 | 31969 ft | 484 kts | 312° |
| 2026-04-23 07:41 | 25.79269 | 44.30543 | 32010 ft | 477 kts | 311° |
| 2026-04-23 07:41 | 25.84136 | 44.25530 | 32013 ft | 477 kts | 311° |
| 2026-04-23 07:42 | 25.88974 | 44.20523 | 32015 ft | 477 kts | 311° |
| 2026-04-23 07:42 | 25.93817 | 44.15499 | 32017 ft | 476 kts | 311° |
| 2026-04-23 07:43 | 25.98642 | 44.10487 | 32019 ft | 476 kts | 311° |
| 2026-04-23 07:43 | 26.03480 | 44.05455 | 32020 ft | 476 kts | 310° |
| 2026-04-23 07:44 | 26.08318 | 44.00434 | 32021 ft | 476 kts | 311° |
| 2026-04-23 07:44 | 26.13151 | 43.95401 | 32022 ft | 476 kts | 310° |
| 2026-04-23 07:45 | 26.17977 | 43.90356 | 32023 ft | 476 kts | 310° |
| 2026-04-23 07:45 | 26.22796 | 43.85310 | 32023 ft | 476 kts | 310° |
| 2026-04-23 07:46 | 26.27619 | 43.80258 | 32023 ft | 476 kts | 310° |
| 2026-04-23 07:46 | 26.31743 | 43.74595 | 32023 ft | 467 kts | 298° |
| 2026-04-23 07:47 | 26.35136 | 43.68463 | 32023 ft | 463 kts | 296° |
| 2026-04-23 07:47 | 26.38431 | 43.62290 | 32023 ft | 463 kts | 296° |
| 2026-04-23 07:48 | 26.41768 | 43.56142 | 32023 ft | 464 kts | 297° |
| 2026-04-23 07:48 | 26.45120 | 43.49992 | 32022 ft | 464 kts | 297° |
| 2026-04-23 07:49 | 26.48471 | 43.43874 | 32022 ft | 464 kts | 297° |
| 2026-04-23 07:49 | 26.51871 | 43.37708 | 32021 ft | 464 kts | 297° |
| 2026-04-23 07:50 | 26.55218 | 43.31559 | 32021 ft | 464 kts | 297° |
| 2026-04-23 07:50 | 26.58560 | 43.25401 | 32020 ft | 464 kts | 297° |
| 2026-04-23 07:51 | 26.61898 | 43.19243 | 32020 ft | 464 kts | 297° |
| 2026-04-23 07:51 | 26.65228 | 43.13095 | 32019 ft | 464 kts | 297° |
| 2026-04-23 07:52 | 26.68569 | 43.06931 | 32021 ft | 464 kts | 296° |
| 2026-04-23 07:52 | 26.71918 | 43.00730 | 32025 ft | 463 kts | 296° |
| 2026-04-23 07:53 | 26.75226 | 42.94595 | 32024 ft | 463 kts | 296° |
| 2026-04-23 07:53 | 26.78559 | 42.88406 | 32024 ft | 463 kts | 296° |
| 2026-04-23 07:54 | 26.81877 | 42.82236 | 32023 ft | 463 kts | 296° |
| 2026-04-23 07:54 | 26.85209 | 42.76096 | 32022 ft | 463 kts | 296° |
| 2026-04-23 07:55 | 26.88554 | 42.69893 | 32024 ft | 463 kts | 296° |
| 2026-04-23 07:55 | 26.91864 | 42.63735 | 32025 ft | 463 kts | 296° |
| 2026-04-23 07:56 | 26.95220 | 42.57520 | 32045 ft | 469 kts | 295° |
| 2026-04-23 07:56 | 26.98581 | 42.51233 | 32041 ft | 470 kts | 295° |
| 2026-04-23 07:57 | 27.01938 | 42.44936 | 32046 ft | 470 kts | 295° |
| 2026-04-23 07:57 | 27.05289 | 42.38644 | 32047 ft | 470 kts | 295° |
| 2026-04-23 07:58 | 27.08640 | 42.32352 | 32048 ft | 471 kts | 295° |
| 2026-04-23 07:58 | 27.11983 | 42.26067 | 32051 ft | 471 kts | 295° |
| 2026-04-23 07:59 | 27.15345 | 42.19727 | 32050 ft | 471 kts | 295° |
| 2026-04-23 07:59 | 27.18690 | 42.13408 | 32051 ft | 471 kts | 295° |
| 2026-04-23 08:00 | 27.22030 | 42.07090 | 32051 ft | 472 kts | 295° |
| 2026-04-23 08:00 | 27.25389 | 42.00730 | 32054 ft | 472 kts | 295° |
| 2026-04-23 08:01 | 27.28782 | 41.94394 | 32053 ft | 472 kts | 295° |
| 2026-04-23 08:01 | 27.32143 | 41.88040 | 32049 ft | 473 kts | 295° |
| 2026-04-23 08:02 | 27.35464 | 41.81724 | 32049 ft | 473 kts | 295° |
| 2026-04-23 08:02 | 27.38805 | 41.75354 | 32054 ft | 473 kts | 295° |
| 2026-04-23 08:03 | 27.41997 | 41.68896 | 32054 ft | 469 kts | 287° |
| 2026-04-23 08:03 | 27.43935 | 41.61954 | 32051 ft | 462 kts | 279° |
| 2026-04-23 08:04 | 27.45319 | 41.54906 | 32053 ft | 460 kts | 278° |
| 2026-04-23 08:04 | 27.46696 | 41.47875 | 32052 ft | 460 kts | 279° |
| 2026-04-23 08:05 | 27.48108 | 41.40845 | 32053 ft | 460 kts | 279° |
| 2026-04-23 08:05 | 27.49530 | 41.33808 | 32053 ft | 460 kts | 279° |
| 2026-04-23 08:06 | 27.50988 | 41.26790 | 32051 ft | 460 kts | 279° |
| 2026-04-23 08:06 | 27.52420 | 41.19812 | 32051 ft | 454 kts | 279° |
| 2026-04-23 08:07 | 27.53820 | 41.12842 | 32054 ft | 459 kts | 279° |
| 2026-04-23 08:07 | 27.55226 | 41.05809 | 32054 ft | 460 kts | 279° |
| 2026-04-23 08:08 | 27.56632 | 40.98778 | 32052 ft | 460 kts | 279° |
| 2026-04-23 08:08 | 27.58033 | 40.91755 | 32050 ft | 460 kts | 279° |
| 2026-04-23 08:09 | 27.59427 | 40.84717 | 32051 ft | 459 kts | 279° |
| 2026-04-23 08:09 | 27.60588 | 40.78829 | 32051 ft | 459 kts | 279° |
| 2026-04-23 08:10 | 27.62196 | 40.70654 | 32052 ft | 459 kts | 279° |
| 2026-04-23 08:10 | 27.64027 | 40.61299 | 32051 ft | 459 kts | 279° |
| 2026-04-23 08:11 | 27.65417 | 40.54271 | 32049 ft | 459 kts | 279° |
| 2026-04-23 08:11 | 27.66822 | 40.47236 | 32051 ft | 459 kts | 279° |
| 2026-04-23 08:12 | 27.68205 | 40.40211 | 32052 ft | 459 kts | 279° |
| 2026-04-23 08:12 | 27.69581 | 40.33178 | 32052 ft | 459 kts | 279° |
| 2026-04-23 08:13 | 27.70950 | 40.26140 | 32050 ft | 459 kts | 279° |
| 2026-04-23 08:13 | 27.72315 | 40.19106 | 32051 ft | 459 kts | 279° |
| 2026-04-23 08:14 | 27.73678 | 40.12069 | 32050 ft | 459 kts | 278° |
| 2026-04-23 08:14 | 27.75037 | 40.05023 | 32049 ft | 459 kts | 278° |
| 2026-04-23 08:15 | 27.76389 | 39.97991 | 32049 ft | 459 kts | 278° |
| 2026-04-23 08:15 | 27.77730 | 39.90997 | 32049 ft | 459 kts | 278° |
| 2026-04-23 08:16 | 27.79076 | 39.83958 | 32050 ft | 458 kts | 278° |
| 2026-04-23 08:16 | 27.80419 | 39.76918 | 32050 ft | 459 kts | 278° |
| 2026-04-23 08:17 | 27.81760 | 39.69866 | 32046 ft | 459 kts | 278° |
| 2026-04-23 08:17 | 27.83099 | 39.62807 | 32051 ft | 460 kts | 278° |
| 2026-04-23 08:18 | 27.84435 | 39.55737 | 32052 ft | 460 kts | 278° |
| 2026-04-23 08:18 | 27.85765 | 39.48675 | 32050 ft | 460 kts | 278° |
| 2026-04-23 08:19 | 27.87108 | 39.41606 | 32055 ft | 460 kts | 278° |
| 2026-04-23 08:19 | 27.88443 | 39.34538 | 32053 ft | 460 kts | 278° |
| 2026-04-23 08:20 | 27.89759 | 39.27465 | 32055 ft | 460 kts | 278° |
| 2026-04-23 08:20 | 27.91066 | 39.20397 | 32051 ft | 460 kts | 278° |
| 2026-04-23 08:21 | 27.92373 | 39.13324 | 32053 ft | 460 kts | 278° |
| 2026-04-23 08:21 | 27.93800 | 39.06275 | 32053 ft | 461 kts | 281° |
| 2026-04-23 08:22 | 27.95695 | 38.99335 | 32053 ft | 463 kts | 283° |
| 2026-04-23 08:22 | 27.97646 | 38.92435 | 32055 ft | 463 kts | 283° |
| 2026-04-23 08:23 | 27.99577 | 38.85485 | 32053 ft | 463 kts | 283° |
| 2026-04-23 08:23 | 28.01490 | 38.78536 | 32052 ft | 463 kts | 283° |
| 2026-04-23 08:24 | 28.03397 | 38.71580 | 32053 ft | 463 kts | 283° |
| 2026-04-23 08:24 | 28.05336 | 38.64635 | 32054 ft | 463 kts | 283° |
| 2026-04-23 08:25 | 28.07259 | 38.57679 | 32053 ft | 463 kts | 283° |
| 2026-04-23 08:25 | 28.09171 | 38.50721 | 32054 ft | 462 kts | 283° |
| 2026-04-23 08:26 | 28.11074 | 38.43760 | 32055 ft | 463 kts | 283° |
| 2026-04-23 08:26 | 28.12971 | 38.36801 | 32055 ft | 462 kts | 283° |
| 2026-04-23 08:27 | 28.14863 | 38.29849 | 32051 ft | 462 kts | 282° |
| 2026-04-23 08:27 | 28.16751 | 38.22889 | 32051 ft | 462 kts | 282° |
| 2026-04-23 08:28 | 28.18632 | 38.15938 | 32052 ft | 462 kts | 282° |
| 2026-04-23 08:28 | 28.20511 | 38.08981 | 32055 ft | 462 kts | 282° |
| 2026-04-23 08:29 | 28.22390 | 38.02014 | 32053 ft | 462 kts | 282° |
| 2026-04-23 08:29 | 28.24262 | 37.95054 | 32054 ft | 461 kts | 282° |
| 2026-04-23 08:30 | 28.26131 | 37.88086 | 32054 ft | 462 kts | 282° |
| 2026-04-23 08:30 | 28.27998 | 37.81116 | 32051 ft | 462 kts | 282° |
| 2026-04-23 08:31 | 28.29862 | 37.74134 | 31972 ft | 462 kts | 282° |
| 2026-04-23 08:31 | 28.31724 | 37.67151 | 31965 ft | 463 kts | 282° |
| 2026-04-23 08:32 | 28.33583 | 37.60155 | 31964 ft | 462 kts | 282° |
| 2026-04-23 08:32 | 28.35439 | 37.53170 | 31963 ft | 462 kts | 282° |
| 2026-04-23 08:33 | 28.37275 | 37.46227 | 31962 ft | 463 kts | 282° |
| 2026-04-23 08:33 | 28.39125 | 37.39226 | 31963 ft | 463 kts | 282° |
| 2026-04-23 08:34 | 28.40968 | 37.32228 | 31960 ft | 463 kts | 282° |
| 2026-04-23 08:34 | 28.42831 | 37.25224 | 31964 ft | 463 kts | 282° |
| 2026-04-23 08:35 | 28.44672 | 37.18219 | 31962 ft | 462 kts | 282° |
| 2026-04-23 08:35 | 28.46498 | 37.11213 | 31966 ft | 462 kts | 282° |
| 2026-04-23 08:36 | 28.48320 | 37.04200 | 31965 ft | 463 kts | 282° |
| 2026-04-23 08:36 | 28.50142 | 36.97184 | 31963 ft | 462 kts | 282° |
| 2026-04-23 08:37 | 28.51966 | 36.90173 | 31959 ft | 462 kts | 282° |
| 2026-04-23 08:37 | 28.53783 | 36.83154 | 31968 ft | 463 kts | 282° |
| 2026-04-23 08:38 | 28.55613 | 36.76132 | 31969 ft | 463 kts | 282° |
| 2026-04-23 08:38 | 28.57428 | 36.69103 | 31965 ft | 462 kts | 282° |
| 2026-04-23 08:39 | 28.59232 | 36.62081 | 31968 ft | 462 kts | 282° |
| 2026-04-23 08:39 | 28.61034 | 36.55059 | 31967 ft | 462 kts | 282° |
| 2026-04-23 08:40 | 28.62848 | 36.48085 | 31957 ft | 463 kts | 282° |
| 2026-04-23 08:40 | 28.64644 | 36.41049 | 31966 ft | 463 kts | 282° |
| 2026-04-23 08:41 | 28.66441 | 36.33972 | 31962 ft | 462 kts | 282° |
| 2026-04-23 08:41 | 28.68222 | 36.26942 | 31965 ft | 462 kts | 282° |
| 2026-04-23 08:42 | 28.70006 | 36.19899 | 31965 ft | 462 kts | 282° |
| 2026-04-23 08:42 | 28.71770 | 36.12915 | 31963 ft | 462 kts | 282° |
| 2026-04-23 08:43 | 28.73539 | 36.05877 | 31959 ft | 462 kts | 282° |
| 2026-04-23 08:43 | 28.75299 | 35.98848 | 31966 ft | 462 kts | 282° |
| 2026-04-23 08:44 | 28.77054 | 35.91810 | 31964 ft | 462 kts | 282° |
| 2026-04-23 08:44 | 28.78807 | 35.84769 | 31962 ft | 461 kts | 281° |
| 2026-04-23 08:45 | 28.80577 | 35.77743 | 31960 ft | 462 kts | 282° |
| 2026-04-23 08:45 | 28.82354 | 35.70713 | 31965 ft | 461 kts | 282° |
| 2026-04-23 08:46 | 28.84124 | 35.63622 | 31965 ft | 469 kts | 282° |
| 2026-04-23 08:46 | 28.85915 | 35.56410 | 31965 ft | 474 kts | 282° |
| 2026-04-23 08:47 | 28.87715 | 35.49148 | 31965 ft | 476 kts | 282° |
| 2026-04-23 08:47 | 28.89512 | 35.41872 | 31967 ft | 476 kts | 282° |
| 2026-04-23 08:48 | 28.91303 | 35.34605 | 31963 ft | 476 kts | 282° |
| 2026-04-23 08:48 | 28.93092 | 35.27328 | 31965 ft | 476 kts | 282° |
| 2026-04-23 08:49 | 28.94875 | 35.20053 | 31967 ft | 476 kts | 282° |
| 2026-04-23 08:49 | 28.96678 | 35.12780 | 31967 ft | 476 kts | 282° |
| 2026-04-23 08:50 | 28.98450 | 35.05499 | 31964 ft | 476 kts | 282° |
| 2026-04-23 08:50 | 29.00211 | 34.98215 | 31965 ft | 476 kts | 282° |
| 2026-04-23 08:51 | 29.01972 | 34.90925 | 32089 ft | 476 kts | 282° |
| 2026-04-23 08:51 | 29.02840 | 34.87281 | 32469 ft | 473 kts | 279° |
| 2026-04-23 08:51 | 29.03429 | 34.83614 | 32880 ft | 467 kts | 274° |
| 2026-04-23 08:52 | 29.03576 | 34.79929 | 33259 ft | 462 kts | 267° |
| 2026-04-23 08:52 | 29.03462 | 34.76266 | 33567 ft | 461 kts | 264° |
| 2026-04-23 08:52 | 29.03147 | 34.72678 | 33850 ft | 459 kts | 268° |
| 2026-04-23 08:52 | 29.03526 | 34.69053 | 33950 ft | 464 kts | 282° |
| 2026-04-23 08:53 | 29.04805 | 34.65645 | 33948 ft | 472 kts | 297° |
| 2026-04-23 08:53 | 29.06908 | 34.62736 | 33942 ft | 482 kts | 312° |
| 2026-04-23 08:53 | 29.12473 | 34.58353 | 33955 ft | 484 kts | 323° |
| 2026-04-23 08:54 | 29.18255 | 34.54556 | 33962 ft | 475 kts | 323° |
| 2026-04-23 08:54 | 29.23977 | 34.50842 | 33965 ft | 473 kts | 324° |
| 2026-04-23 08:55 | 29.29645 | 34.47007 | 33966 ft | 472 kts | 321° |
| 2026-04-23 08:55 | 29.34201 | 34.43584 | 33963 ft | 470 kts | 320° |
| 2026-04-23 08:56 | 29.40562 | 34.38746 | 33968 ft | 470 kts | 319° |
| 2026-04-23 08:56 | 29.45082 | 34.35288 | 33965 ft | 470 kts | 319° |
| 2026-04-23 08:57 | 29.50515 | 34.31124 | 33963 ft | 470 kts | 319° |
| 2026-04-23 08:57 | 29.55984 | 34.26929 | 33963 ft | 470 kts | 319° |
| 2026-04-23 08:58 | 29.61464 | 34.22829 | 33966 ft | 471 kts | 322° |
| 2026-04-23 08:58 | 29.67246 | 34.19219 | 33964 ft | 475 kts | 326° |
| 2026-04-23 08:59 | 29.73133 | 34.15704 | 33966 ft | 476 kts | 325° |
| 2026-04-23 08:59 | 29.78989 | 34.12157 | 33963 ft | 475 kts | 325° |
| 2026-04-23 09:00 | 29.84840 | 34.08590 | 33964 ft | 475 kts | 325° |
| 2026-04-23 09:00 | 29.90679 | 34.05018 | 33967 ft | 475 kts | 325° |
| 2026-04-23 09:01 | 29.96529 | 34.01461 | 33964 ft | 475 kts | 325° |
| 2026-04-23 09:01 | 30.02370 | 33.97894 | 33965 ft | 475 kts | 325° |
| 2026-04-23 09:02 | 30.08217 | 33.94312 | 33964 ft | 475 kts | 325° |
| 2026-04-23 09:02 | 30.14049 | 33.90733 | 33964 ft | 475 kts | 325° |
| 2026-04-23 09:03 | 30.19884 | 33.87146 | 33964 ft | 475 kts | 325° |
| 2026-04-23 09:03 | 30.25716 | 33.83554 | 33964 ft | 474 kts | 325° |
| 2026-04-23 09:04 | 30.31542 | 33.79962 | 33966 ft | 474 kts | 325° |
| 2026-04-23 09:04 | 30.37365 | 33.76367 | 33963 ft | 474 kts | 325° |
| 2026-04-23 09:05 | 30.43180 | 33.72770 | 33964 ft | 473 kts | 325° |
| 2026-04-23 09:05 | 30.48989 | 33.69176 | 33963 ft | 473 kts | 325° |
| 2026-04-23 09:06 | 30.54732 | 33.65466 | 33965 ft | 471 kts | 322° |
| 2026-04-23 09:06 | 30.60287 | 33.61464 | 33964 ft | 469 kts | 321° |